Time;durP1;ratioP1;P1;durP2;ratioP2;P2;SDS_P1;SDS_P2;PMS_P1;PMS_P2;Temp;Humidity;BMP_temperature;BMP_pressure;BME280_temperature;BME280_humidity;BME280_pressure;Samples;Min_cycle;Max_cycle;Signal;HPM_P1;HPM_P2
2021/03/05 00:00:38;;;;;;;10.87;4.73;;;;;;;3.36;100.00;99454.09;1841423;77;21182;-75
2021/03/05 00:03:07;;;;;;;11.27;5.57;;;;;;;3.36;100.00;99456.77;1841477;78;21499;-74
2021/03/05 00:05:37;;;;;;;11.60;5.43;;;;;;;3.37;100.00;99458.47;1851236;77;20982;-75
2021/03/05 00:08:07;;;;;;;10.50;5.13;;;;;;;3.38;100.00;99461.01;1860738;77;21527;-74
2021/03/05 00:10:37;;;;;;;20.23;6.73;;;;;;;3.41;100.00;99458.53;1860812;77;20980;-75
2021/03/05 00:13:05;;;;;;;8.43;3.87;;;;;;;3.39;100.00;99461.84;1860915;77;21190;-75
2021/03/05 00:15:39;;;;;;;11.60;5.20;;;;;;;3.38;100.00;99464.15;1860736;77;20927;-75
2021/03/05 00:18:07;;;;;;;14.37;4.43;;;;;;;3.35;100.00;99459.11;1860945;77;21535;-74
2021/03/05 00:20:39;;;;;;;17.43;6.07;;;;;;;3.34;100.00;99472.10;1860872;77;20997;-75
2021/03/05 00:23:08;;;;;;;13.53;5.53;;;;;;;3.34;100.00;99459.58;1861040;77;21010;-74
2021/03/05 00:25:36;;;;;;;16.00;5.97;;;;;;;3.35;100.00;99453.77;1860869;77;21178;-75
2021/03/05 00:28:05;;;;;;;13.23;5.90;;;;;;;3.33;100.00;99456.57;1860768;77;21030;-75
2021/03/05 00:30:34;;;;;;;10.73;5.23;;;;;;;3.33;100.00;99461.05;1860696;77;20871;-74
2021/03/05 00:33:06;;;;;;;10.80;4.63;;;;;;;3.33;100.00;99463.72;1860814;77;20993;-74
2021/03/05 00:35:36;;;;;;;11.60;5.10;;;;;;;3.33;100.00;99452.56;1859664;77;21008;-74
2021/03/05 00:38:04;;;;;;;12.30;5.17;;;;;;;3.31;100.00;99457.20;1864233;77;22070;-74
2021/03/05 00:40:32;;;;;;;11.30;5.30;;;;;;;3.31;100.00;99446.98;1863857;77;20935;-75
2021/03/05 00:43:00;;;;;;;13.83;5.80;;;;;;;3.30;100.00;99458.17;1860331;77;20958;-75
2021/03/05 00:45:28;;;;;;;12.73;5.80;;;;;;;3.31;100.00;99446.52;1860312;77;21049;-75
2021/03/05 00:47:56;;;;;;;8.97;4.67;;;;;;;3.28;100.00;99448.62;1827220;77;20955;-76
2021/03/05 00:50:24;;;;;;;13.07;5.33;;;;;;;3.27;100.00;99433.56;1860088;77;21196;-74
2021/03/05 00:52:52;;;;;;;14.10;5.60;;;;;;;3.28;100.00;99443.28;1860230;77;20931;-74
2021/03/05 00:55:22;;;;;;;10.83;6.03;;;;;;;3.27;100.00;99437.06;1860255;77;20932;-75
2021/03/05 00:57:50;;;;;;;15.07;6.40;;;;;;;3.28;100.00;99433.92;1860182;77;21006;-74
2021/03/05 01:00:20;;;;;;;17.20;5.93;;;;;;;3.31;100.00;99428.28;1860303;77;21465;-75
2021/03/05 01:02:48;;;;;;;8.97;5.33;;;;;;;3.30;100.00;99426.61;1860165;77;21186;-74
2021/03/05 01:05:17;;;;;;;14.53;5.90;;;;;;;3.30;100.00;99421.27;1860139;77;21026;-75
2021/03/05 01:07:45;;;;;;;11.27;4.87;;;;;;;3.26;100.00;99414.02;1860344;77;20947;-75
2021/03/05 01:10:15;;;;;;;11.53;5.43;;;;;;;3.25;100.00;99415.49;1860040;77;21555;-74
2021/03/05 01:12:44;;;;;;;14.37;5.73;;;;;;;3.23;100.00;99408.95;1860161;77;21528;-75
2021/03/05 01:15:12;;;;;;;14.67;5.87;;;;;;;3.25;100.00;99413.66;1860175;77;21354;-74
2021/03/05 01:17:40;;;;;;;15.03;6.70;;;;;;;3.26;100.00;99409.14;1860167;77;20888;-76
2021/03/05 01:20:21;;;;;;;13.90;6.10;;;;;;;3.23;100.00;99412.95;1860165;77;20975;-73
2021/03/05 01:22:49;;;;;;;12.63;5.77;;;;;;;3.19;100.00;99413.73;1860254;77;21587;-75
2021/03/05 01:25:22;;;;;;;12.50;5.77;;;;;;;3.18;100.00;99416.53;1860316;77;21511;-75
2021/03/05 01:27:49;;;;;;;11.55;6.03;;;;;;;3.16;100.00;99426.02;1860953;77;21415;-75
2021/03/05 01:30:19;;;;;;;12.80;6.40;;;;;;;3.14;100.00;99428.48;1832234;77;21008;-75
2021/03/05 01:32:48;;;;;;;16.37;7.47;;;;;;;3.12;100.00;99432.62;1757088;80;21024;-75
2021/03/05 01:35:22;;;;;;;12.87;6.17;;;;;;;3.13;100.00;99436.97;1805314;79;20997;-74
2021/03/05 01:37:51;;;;;;;16.73;7.43;;;;;;;3.15;100.00;99434.16;1811390;79;21065;-74
2021/03/05 01:40:38;;;;;;;14.43;6.30;;;;;;;3.13;100.00;99444.98;1757827;81;22059;-74
2021/03/05 01:43:08;;;;;;;15.50;4.83;;;;;;;3.10;100.00;99449.30;1804783;79;21014;-73
2021/03/05 01:45:37;;;;;;;14.47;6.47;;;;;;;3.07;100.00;99447.39;1757277;81;21049;-75
2021/03/05 01:48:12;;;;;;;10.47;5.17;;;;;;;3.06;100.00;99444.34;1804595;78;21002;-75
2021/03/05 01:51:00;;;;;;;20.00;7.37;;;;;;;3.04;100.00;99449.33;1757183;81;21041;-75
2021/03/05 01:53:30;;;;;;;15.63;7.13;;;;;;;3.04;100.00;99447.16;1804694;79;22223;-76
2021/03/05 01:55:58;;;;;;;15.70;6.93;;;;;;;3.05;100.00;99446.19;1804624;79;20962;-75
2021/03/05 01:58:26;;;;;;;13.40;6.60;;;;;;;3.04;100.00;99444.48;1704646;81;20953;-76
2021/03/05 02:01:01;;;;;;;10.93;5.80;;;;;;;3.02;100.00;99442.45;1804566;79;20994;-73
2021/03/05 02:03:31;;;;;;;14.87;7.13;;;;;;;3.01;100.00;99446.09;1804627;79;20935;-74
2021/03/05 02:05:59;;;;;;;12.90;6.33;;;;;;;3.02;100.00;99456.64;1757153;81;21376;-75
2021/03/05 02:08:27;;;;;;;15.07;6.50;;;;;;;3.02;100.00;99461.14;1804631;79;21583;-75
2021/03/05 02:10:56;;;;;;;13.23;6.30;;;;;;;3.03;100.00;99455.67;1804560;79;20990;-75
2021/03/05 02:13:24;;;;;;;19.13;7.20;;;;;;;3.03;100.00;99455.67;1804441;79;21002;-75
2021/03/05 02:15:52;;;;;;;13.27;7.37;;;;;;;3.04;100.00;99452.50;1757263;81;21558;-75
2021/03/05 02:18:44;;;;;;;17.07;7.30;;;;;;;3.02;100.00;99448.62;1804649;79;20983;-75
2021/03/05 02:21:48;;;;;;;16.90;7.90;;;;;;;3.00;100.00;99439.07;1709225;83;21022;-75
2021/03/05 02:24:28;;;;;;;13.13;6.37;;;;;;;2.98;100.00;99438.38;1724214;83;21030;-75
2021/03/05 02:27:31;;;;;;;18.67;7.63;;;;;;;2.94;100.00;99441.80;1724950;83;21014;-74
2021/03/05 02:30:16;;;;;;;19.03;8.20;;;;;;;2.96;100.00;99447.02;1723431;81;21040;-75
2021/03/05 02:33:01;;;;;;;23.43;9.03;;;;;;;2.96;100.00;99438.50;1727098;83;21580;-75
2021/03/05 02:35:31;;;;;;;23.90;9.67;;;;;;;2.97;100.00;99436.67;1741864;82;21007;-75
2021/03/05 02:38:02;;;;;;;13.50;6.87;;;;;;;2.93;100.00;99437.94;1719174;82;21095;-74
2021/03/05 02:40:40;;;;;;;17.00;5.87;;;;;;;2.96;100.00;99440.34;1845340;76;26754;-75
2021/03/05 02:43:12;;;;;;;16.30;7.37;;;;;;;2.94;100.00;99445.81;1815406;79;20877;-73
2021/03/05 02:45:41;;;;;;;17.17;7.40;;;;;;;2.95;100.00;99444.81;1801589;78;21366;-74
2021/03/05 02:48:20;;;;;;;23.00;10.60;;;;;;;2.95;100.00;99442.14;1801785;78;21003;-75
2021/03/05 02:50:52;;;;;;;26.33;9.90;;;;;;;2.96;100.00;99454.53;1801728;79;21200;-75
2021/03/05 02:53:29;;;;;;;16.67;6.87;;;;;;;3.00;100.00;99447.09;1844863;76;26577;-75
2021/03/05 02:56:19;;;;;;;21.83;9.13;;;;;;;2.97;100.00;99449.52;1815554;79;20972;-75
2021/03/05 02:58:51;;;;;;;18.47;6.87;;;;;;;2.97;100.00;99442.02;1763157;81;21354;-76
2021/03/05 03:01:21;;;;;;;18.63;9.20;;;;;;;2.94;100.00;99444.95;1763537;81;21024;-76
2021/03/05 03:03:54;;;;;;;23.57;8.97;;;;;;;2.93;100.00;99449.95;1763359;81;21240;-74
2021/03/05 03:06:24;;;;;;;30.02;11.68;;;;;;;2.92;100.00;99457.59;1763262;81;21071;-74
2021/03/05 03:08:54;;;;;;;24.90;9.67;;;;;;;2.92;100.00;99459.80;1763290;81;20996;-75
2021/03/05 03:11:22;;;;;;;22.33;9.27;;;;;;;2.90;100.00;99459.06;1763291;81;22265;-74
2021/03/05 03:13:50;;;;;;;21.97;9.47;;;;;;;2.90;100.00;99458.23;1763240;81;21059;-75
2021/03/05 03:16:18;;;;;;;25.87;12.77;;;;;;;2.91;100.00;99466.11;1763376;81;21502;-75
2021/03/05 03:18:47;;;;;;;34.90;13.27;;;;;;;2.91;100.00;99472.78;1738352;81;21085;-74
2021/03/05 03:21:15;;;;;;;27.13;10.33;;;;;;;2.89;100.00;99463.23;1763159;81;21020;-75
2021/03/05 03:23:43;;;;;;;24.37;11.97;;;;;;;2.88;100.00;99460.19;1763176;81;22435;-75
2021/03/05 03:26:11;;;;;;;24.87;9.73;;;;;;;2.85;100.00;99454.62;1763133;81;20980;-75
2021/03/05 03:28:39;;;;;;;21.80;10.30;;;;;;;2.83;100.00;99459.25;1775986;79;21048;-76
2021/03/05 03:31:08;;;;;;;22.57;9.30;;;;;;;2.85;100.00;99459.95;1811655;79;20993;-75
2021/03/05 03:33:35;;;;;;;29.57;11.53;;;;;;;2.83;100.00;99459.25;1734392;82;21590;-74
2021/03/05 03:36:06;;;;;;;33.53;12.33;;;;;;;2.84;100.00;99464.46;1725496;83;22023;-75
2021/03/05 03:38:34;;;;;;;26.80;11.60;;;;;;;2.84;100.00;99461.80;1725335;83;20990;-75
2021/03/05 03:41:02;;;;;;;21.70;10.57;;;;;;;2.84;100.00;99460.95;1725289;83;21065;-76
2021/03/05 03:43:30;;;;;;;25.90;10.83;;;;;;;2.79;100.00;99461.35;1725352;83;21642;-75
2021/03/05 03:45:58;;;;;;;21.37;9.47;;;;;;;2.78;100.00;99454.81;1725484;83;20954;-74
2021/03/05 03:48:28;;;;;;;26.10;9.63;;;;;;;2.74;100.00;99466.25;1725326;83;21678;-74
2021/03/05 03:51:03;;;;;;;30.37;13.67;;;;;;;2.74;100.00;99469.42;1725258;83;21049;-75
2021/03/05 03:53:57;;;;;;;40.43;14.23;;;;;;;2.77;100.00;99461.98;1889957;76;26266;-75
2021/03/05 03:56:27;;;;;;;32.83;12.83;;;;;;;2.74;100.00;99466.25;1887641;75;21020;-75
2021/03/05 03:58:54;;;;;;;26.37;12.43;;;;;;;2.73;100.00;99455.73;1893934;75;21357;-75
2021/03/05 04:01:22;;;;;;;26.80;12.73;;;;;;;2.71;100.00;99456.33;1791531;78;20989;-75
2021/03/05 04:03:51;;;;;;;29.93;13.00;;;;;;;2.70;100.00;99455.99;1851479;77;21606;-75
2021/03/05 04:06:23;;;;;;;34.03;13.73;;;;;;;2.69;100.00;99456.46;1822543;78;21112;-76
2021/03/05 04:08:53;;;;;;;34.80;14.23;;;;;;;2.70;100.00;99462.17;1852540;76;21612;-74
2021/03/05 04:11:21;;;;;;;25.90;11.20;;;;;;;2.70;100.00;99461.33;1820265;78;21411;-75
2021/03/05 04:13:50;;;;;;;23.47;10.33;;;;;;;2.69;100.00;99461.80;1854338;76;21016;-74
2021/03/05 04:16:18;;;;;;;27.10;11.83;;;;;;;2.66;100.00;99462.92;1827851;78;21452;-75
2021/03/05 04:18:46;;;;;;;29.03;11.73;;;;;;;2.68;100.00;99468.14;1856633;77;20981;-75
2021/03/05 04:21:17;;;;;;;31.40;13.03;;;;;;;2.70;100.00;99466.67;1823171;77;20992;-73
2021/03/05 04:23:45;;;;;;;31.17;15.87;;;;;;;2.69;100.00;99463.63;1808620;77;21271;-73
2021/03/05 04:26:12;;;;;;;25.80;11.47;;;;;;;2.66;100.00;99458.92;1850440;76;20984;-74
2021/03/05 04:28:40;;;;;;;19.23;9.27;;;;;;;2.64;100.00;99470.73;1822714;78;21009;-76
2021/03/05 04:31:08;;;;;;;22.80;10.70;;;;;;;2.64;100.00;99472.06;1795704;80;20993;-74
2021/03/05 04:33:37;;;;;;;27.73;12.23;;;;;;;2.62;100.00;99470.86;1823276;77;21542;-74
2021/03/05 04:36:06;;;;;;;27.43;12.77;;;;;;;2.62;100.00;99475.33;1801556;79;21569;-74
2021/03/05 04:38:36;;;;;;;28.27;12.93;;;;;;;2.64;100.00;99480.08;1798496;79;21617;-75
2021/03/05 04:41:04;;;;;;;32.17;14.03;;;;;;;2.64;100.00;99483.58;1803683;79;20936;-75
2021/03/05 04:43:33;;;;;;;28.97;13.10;;;;;;;2.64;100.00;99482.74;1803425;78;21011;-76
2021/03/05 04:46:01;;;;;;;22.30;10.73;;;;;;;2.64;100.00;99484.08;1803382;79;21039;-75
2021/03/05 04:48:29;;;;;;;28.13;11.03;;;;;;;2.62;100.00;99479.34;1803260;79;21384;-74
2021/03/05 04:50:57;;;;;;;22.17;9.23;;;;;;;2.58;100.00;99486.77;1799548;79;21051;-75
2021/03/05 04:53:25;;;;;;;26.17;12.63;;;;;;;2.58;100.00;99488.59;1803166;79;20892;-74
2021/03/05 04:55:52;;;;;;;33.40;13.90;;;;;;;2.59;100.00;99499.14;1801537;79;20972;-74
2021/03/05 04:58:20;;;;;;;28.50;12.17;;;;;;;2.61;100.00;99501.69;1803362;79;21525;-75
2021/03/05 05:00:50;;;;;;;28.67;12.80;;;;;;;2.62;100.00;99498.02;1794200;78;22030;-75
2021/03/05 05:03:18;;;;;;;27.03;12.27;;;;;;;2.60;100.00;99499.98;1801940;79;21374;-76
2021/03/05 05:05:46;;;;;;;25.53;11.80;;;;;;;2.60;100.00;99498.18;1800953;79;20988;-74
2021/03/05 05:08:15;;;;;;;34.73;12.20;;;;;;;2.60;100.00;99507.52;1802890;79;21128;-74
2021/03/05 05:10:43;;;;;;;24.63;11.30;;;;;;;2.61;100.00;99517.20;1802927;79;21252;-75
2021/03/05 05:13:11;;;;;;;29.03;12.03;;;;;;;2.62;100.00;99513.56;1802836;79;21240;-74
2021/03/05 05:15:39;;;;;;;30.50;11.23;;;;;;;2.64;100.00;99517.45;1801054;79;21630;-75
2021/03/05 05:18:07;;;;;;;28.43;12.57;;;;;;;2.67;100.00;99530.50;1802836;79;20940;-76
2021/03/05 05:20:36;;;;;;;34.83;13.57;;;;;;;2.70;100.00;99538.75;1798059;79;21023;-75
2021/03/05 05:23:05;;;;;;;27.07;12.53;;;;;;;2.71;100.00;99536.42;1802773;79;21000;-73
2021/03/05 05:25:33;;;;;;;22.83;9.27;;;;;;;2.69;100.00;99541.89;1800941;79;21198;-74
2021/03/05 05:28:01;;;;;;;27.67;12.13;;;;;;;2.69;100.00;99542.39;1802522;78;21394;-76
2021/03/05 05:30:29;;;;;;;28.33;12.97;;;;;;;2.70;100.00;99546.77;1835654;78;21056;-75
2021/03/05 05:32:57;;;;;;;33.33;13.53;;;;;;;2.72;100.00;99548.30;1818162;78;20954;-76
2021/03/05 05:35:28;;;;;;;34.07;13.87;;;;;;;2.71;100.00;99547.97;1802981;78;20984;-75
2021/03/05 05:37:56;;;;;;;29.27;12.67;;;;;;;2.70;100.00;99548.94;1797170;79;21630;-75
2021/03/05 05:40:23;;;;;;;22.03;11.97;;;;;;;2.71;100.00;99555.11;1815803;78;20945;-74
2021/03/05 05:42:52;;;;;;;24.53;12.03;;;;;;;2.69;100.00;99551.23;1821862;78;21016;-74
2021/03/05 05:45:20;;;;;;;19.00;9.17;;;;;;;2.72;100.00;99556.81;1815575;78;21039;-74
2021/03/05 05:47:48;;;;;;;23.97;10.47;;;;;;;2.74;100.00;99546.84;1816400;78;20898;-75
2021/03/05 05:50:17;;;;;;;34.50;15.47;;;;;;;2.76;100.00;99556.89;1822423;78;21550;-75
2021/03/05 05:52:44;;;;;;;29.30;13.13;;;;;;;2.77;100.00;99560.77;1822448;78;21005;-75
2021/03/05 05:55:13;;;;;;;33.40;13.90;;;;;;;2.76;100.00;99560.90;1817964;78;21597;-75
2021/03/05 05:57:40;;;;;;;29.23;13.07;;;;;;;2.76;100.00;99570.24;1777454;78;21214;-74
2021/03/05 06:00:11;;;;;;;21.23;9.77;;;;;;;2.76;100.00;99563.10;1803894;78;21052;-75
2021/03/05 06:02:43;;;;;;;25.97;11.73;;;;;;;2.76;100.00;99564.91;1822832;78;21179;-73
2021/03/05 06:05:15;;;;;;;19.85;8.05;;;;;;;2.76;100.00;99568.91;1791872;78;21151;-75
2021/03/05 06:07:43;;;;;;;17.97;8.13;;;;;;;2.78;100.00;99574.95;1819454;78;20981;-75
2021/03/05 06:10:14;;;;;;;19.43;8.53;;;;;;;2.79;100.00;99572.16;1798819;77;21098;-76
2021/03/05 06:12:46;;;;;;;24.67;9.23;;;;;;;2.82;100.00;99578.58;1813334;78;21541;-75
2021/03/05 06:15:17;;;;;;;28.90;11.60;;;;;;;2.82;100.00;99580.41;1760744;78;21339;-75
2021/03/05 06:17:48;;;;;;;41.50;18.70;;;;;;;2.82;100.00;99590.59;1825107;78;20993;-74
2021/03/05 06:20:17;;;;;;;30.30;12.30;;;;;;;2.84;100.00;99589.13;1824208;78;21487;-73
2021/03/05 06:22:46;;;;;;;18.17;9.70;;;;;;;2.85;100.00;99593.47;1813033;78;21132;-74
2021/03/05 06:25:19;;;;;;;20.53;9.40;;;;;;;2.88;100.00;99593.72;1818077;78;20980;-73
2021/03/05 06:27:46;;;;;;;34.58;13.75;;;;;;;2.90;100.00;99597.94;1806801;78;21209;-74
2021/03/05 06:30:17;;;;;;;26.57;10.37;;;;;;;2.88;100.00;99613.25;1796660;78;20938;-74
2021/03/05 06:32:45;;;;;;;30.27;14.23;;;;;;;2.89;100.00;99597.59;1786558;79;20938;-74
2021/03/05 06:35:16;;;;;;;23.67;10.13;;;;;;;2.88;100.00;99604.40;1792101;79;21552;-74
2021/03/05 06:37:47;;;;;;;23.77;10.63;;;;;;;2.88;100.00;99603.06;1786093;79;21011;-74
2021/03/05 06:40:17;;;;;;;18.10;8.33;;;;;;;2.90;100.00;99615.30;1795719;78;21364;-74
2021/03/05 06:42:56;;;;;;;20.50;8.73;;;;;;;2.89;100.00;99612.78;1793423;79;20993;-74
2021/03/05 06:45:38;;;;;;;29.30;11.10;;;;;;;2.90;100.00;99604.61;1794171;79;21198;-73
2021/03/05 06:48:09;;;;;;;22.97;10.63;;;;;;;2.91;100.00;99622.34;1791160;78;21044;-73
2021/03/05 06:50:39;;;;;;;25.73;11.60;;;;;;;2.94;100.00;99619.41;1806320;78;21562;-73
2021/03/05 06:53:23;;;;;;;25.10;10.17;;;;;;;3.00;100.00;99615.36;1826684;78;21210;-74
2021/03/05 06:55:52;;;;;;;20.67;8.57;;;;;;;3.03;100.00;99612.43;1840442;77;22289;-75
2021/03/05 06:58:21;;;;;;;27.80;11.00;;;;;;;3.05;100.00;99613.13;1803624;79;20978;-74
2021/03/05 07:01:01;;;;;;;26.60;10.23;;;;;;;3.09;100.00;99615.89;1811783;78;20903;-76
2021/03/05 07:03:30;;;;;;;26.83;11.50;;;;;;;3.14;100.00;99614.16;1816172;79;20962;-75
2021/03/05 07:05:58;;;;;;;22.47;9.90;;;;;;;3.16;100.00;99616.20;1823109;78;21642;-75
2021/03/05 07:08:42;;;;;;;25.83;11.13;;;;;;;3.19;100.00;99615.95;1800499;78;21049;-74
2021/03/05 07:11:12;;;;;;;21.83;9.83;;;;;;;3.19;100.00;99614.11;1829100;77;21048;-74
2021/03/05 07:13:50;;;;;;;22.87;10.63;;;;;;;3.21;100.00;99622.83;1829972;77;21574;-73
2021/03/05 07:16:18;;;;;;;19.83;8.73;;;;;;;3.24;100.00;99623.08;1830091;77;21103;-73
2021/03/05 07:18:47;;;;;;;31.90;14.43;;;;;;;3.28;100.00;99615.13;1835151;77;22671;-74
2021/03/05 07:21:20;;;;;;;28.20;10.80;;;;;;;3.28;100.00;99616.47;1830132;77;21481;-73
2021/03/05 07:23:48;;;;;;;30.05;12.53;;;;;;;3.29;100.00;99615.47;1812817;77;20964;-74
2021/03/05 07:26:18;;;;;;;28.33;12.40;;;;;;;3.32;100.00;99616.55;1790216;78;20990;-73
2021/03/05 07:28:47;;;;;;;22.53;8.93;;;;;;;3.36;100.00;99617.12;1809508;78;20961;-76
2021/03/05 07:31:17;;;;;;;24.87;11.23;;;;;;;3.39;100.00;99614.19;1797930;78;21461;-73
2021/03/05 07:33:51;;;;;;;27.90;12.00;;;;;;;3.41;100.00;99620.23;1807299;78;21113;-74
2021/03/05 07:36:19;;;;;;;27.67;11.93;;;;;;;3.44;100.00;99623.98;1818616;78;20867;-74
2021/03/05 07:38:51;;;;;;;27.17;9.57;;;;;;;3.43;100.00;99622.28;1836375;77;21005;-73
2021/03/05 07:41:21;;;;;;;23.33;9.47;;;;;;;3.47;100.00;99624.19;1837387;77;21017;-72
2021/03/05 07:43:50;;;;;;;21.57;9.83;;;;;;;3.46;100.00;99622.02;1814687;77;22271;-75
2021/03/05 07:46:18;;;;;;;29.97;11.80;;;;;;;3.51;100.00;99619.78;1838344;77;21640;-74
2021/03/05 07:48:47;;;;;;;26.50;11.20;;;;;;;3.58;100.00;99624.94;1813872;78;20929;-73
2021/03/05 07:51:18;;;;;;;24.87;10.30;;;;;;;3.62;100.00;99613.48;1796659;78;21001;-74
2021/03/05 07:54:01;;;;;;;33.23;13.70;;;;;;;3.68;100.00;99623.61;1821597;77;20948;-72
2021/03/05 07:56:50;;;;;;;31.47;13.50;;;;;;;3.73;100.00;99632.07;1740903;78;21175;-72
2021/03/05 07:59:44;;;;;;;34.50;13.37;;;;;;;3.78;100.00;99624.48;1752442;80;20989;-74
2021/03/05 08:02:14;;;;;;;28.90;11.73;;;;;;;3.82;100.00;99634.92;1731115;80;21193;-73
2021/03/05 08:04:58;;;;;;;22.63;9.53;;;;;;;3.84;100.00;99628.93;1743797;80;21113;-74
2021/03/05 08:07:30;;;;;;;31.90;13.87;;;;;;;3.84;100.00;99619.07;1752761;81;21158;-75
2021/03/05 08:09:58;;;;;;;28.10;11.18;;;;;;;3.90;100.00;99614.52;1754578;81;21282;-74
2021/03/05 08:12:45;;;;;;;35.07;15.03;;;;;;;3.96;100.00;99611.28;1753449;81;21263;-74
2021/03/05 08:15:19;;;;;;;26.73;12.07;;;;;;;4.02;100.00;99617.92;1742030;81;21621;-72
2021/03/05 08:17:48;;;;;;;29.07;13.77;;;;;;;4.08;100.00;99611.16;1762866;79;21095;-70
2021/03/05 08:20:24;;;;;;;29.03;14.00;;;;;;;4.08;100.00;99607.98;1776812;78;21584;-70
2021/03/05 08:23:03;;;;;;;34.27;15.63;;;;;;;4.10;100.00;99594.47;1789014;79;21144;-68
2021/03/05 08:25:38;;;;;;;31.87;13.77;;;;;;;4.17;100.00;99584.39;1782204;79;21185;-70
2021/03/05 08:28:10;;;;;;;28.27;12.27;;;;;;;4.24;100.00;99576.65;1791254;78;21104;-75
2021/03/05 08:30:42;;;;;;;29.77;13.03;;;;;;;4.29;100.00;99569.05;1766778;79;21228;-71
2021/03/05 08:33:28;;;;;;;29.87;13.40;;;;;;;4.36;100.00;99570.66;1785821;78;21207;-72
2021/03/05 08:36:04;;;;;;;27.63;11.10;;;;;;;4.47;100.00;99589.23;1842711;77;27188;-75
2021/03/05 08:38:36;;;;;;;27.33;10.93;;;;;;;4.49;100.00;99600.64;1790596;79;21018;-71
2021/03/05 08:41:07;;;;;;;21.27;8.57;;;;;;;4.53;100.00;99602.54;1733625;81;21368;-71
2021/03/05 08:43:36;;;;;;;26.37;10.90;;;;;;;4.54;100.00;99590.35;1793628;79;21001;-72
2021/03/05 08:46:09;;;;;;;25.60;11.03;;;;;;;4.58;100.00;99588.23;1791711;79;20985;-74
2021/03/05 08:48:46;;;;;;;27.55;10.00;;;;;;;4.66;100.00;99594.23;1783886;79;20994;-79
2021/03/05 08:51:19;;;;;;;31.00;12.80;;;;;;;4.69;100.00;99593.92;1779619;79;21617;-78
2021/03/05 08:53:53;;;;;;;33.73;14.17;;;;;;;4.68;100.00;99602.96;1789236;79;21366;-72
2021/03/05 08:56:26;;;;;;;32.10;15.90;;;;;;;4.67;100.00;99607.45;1727566;81;20959;-71
2021/03/05 08:59:06;;;;;;;26.70;11.03;;;;;;;4.71;100.00;99598.63;1791294;79;21325;-73
2021/03/05 09:01:41;;;;;;;25.67;10.93;;;;;;;4.73;100.00;99605.55;1783216;79;21068;-71
2021/03/05 09:04:19;;;;;;;26.90;11.23;;;;;;;4.74;100.00;99600.52;1795184;79;21542;-70
2021/03/05 09:06:57;;;;;;;27.47;10.50;;;;;;;4.77;100.00;99601.25;1762379;81;21259;-72
2021/03/05 09:09:27;;;;;;;29.80;12.93;;;;;;;4.83;100.00;99590.78;1729362;82;21093;-72
2021/03/05 09:12:14;;;;;;;24.15;11.25;;;;;;;4.90;100.00;99589.70;1743754;80;21081;-70
2021/03/05 09:14:44;;;;;;;27.87;11.13;;;;;;;4.92;100.00;99596.63;1746040;80;21208;-77
2021/03/05 09:17:13;;;;;;;25.77;10.77;;;;;;;4.97;100.00;99602.88;1743479;82;21012;-72
2021/03/05 09:19:46;;;;;;;22.83;9.80;;;;;;;5.03;100.00;99602.78;1741882;82;22340;-72
2021/03/05 09:22:24;;;;;;;28.03;11.40;;;;;;;5.10;100.00;99594.53;1748207;82;21052;-73
2021/03/05 09:25:01;;;;;;;30.63;12.70;;;;;;;5.15;100.00;99597.59;1745927;82;21651;-75
2021/03/05 09:27:41;;;;;;;24.67;10.33;;;;;;;5.18;100.00;99613.37;1746137;82;21024;-75
2021/03/05 09:30:21;;;;;;;35.00;15.13;;;;;;;5.28;100.00;99606.66;1859435;75;27781;-73
2021/03/05 09:32:55;;;;;;;28.63;11.10;;;;;;;5.30;100.00;99614.89;1868354;76;21040;-75
2021/03/05 09:35:29;;;;;;;26.20;11.37;;;;;;;5.43;100.00;99609.69;1810229;78;22546;-77
2021/03/05 09:37:58;;;;;;;32.60;14.23;;;;;;;5.54;100.00;99608.13;1804685;79;21816;-75
2021/03/05 09:40:28;;;;;;;32.20;13.63;;;;;;;5.61;100.00;99603.02;1782553;80;21047;-76
2021/03/05 09:43:01;;;;;;;32.70;15.87;;;;;;;5.66;100.00;99604.77;1783499;80;21386;-73
2021/03/05 09:45:48;;;;;;;34.83;16.50;;;;;;;5.66;100.00;99602.91;1783892;79;21091;-74
2021/03/05 09:48:33;;;;;;;45.93;18.27;;;;;;;5.67;100.00;99601.93;1782359;80;22230;-75
2021/03/05 09:51:09;;;;;;;48.23;22.10;;;;;;;5.68;100.00;99600.95;1813685;77;26711;-77
2021/03/05 09:53:38;;;;;;;40.53;19.90;;;;;;;5.55;100.00;99609.00;1789495;79;20905;-80
2021/03/05 09:56:08;;;;;;;39.57;20.33;;;;;;;5.41;100.00;99609.83;1778687;78;21610;-76
2021/03/05 09:58:36;;;;;;;35.60;15.57;;;;;;;5.31;100.00;99602.31;1742351;81;21445;-75
2021/03/05 10:01:05;;;;;;;27.73;12.60;;;;;;;5.22;100.00;99609.41;1755752;81;21024;-75
2021/03/05 10:03:33;;;;;;;29.20;12.33;;;;;;;5.11;100.00;99602.91;1756386;81;21461;-74
2021/03/05 10:06:01;;;;;;;28.00;12.30;;;;;;;5.02;100.00;99605.13;1783168;80;21091;-75
2021/03/05 10:08:31;;;;;;;26.13;12.10;;;;;;;4.97;100.00;99604.20;1759061;81;21636;-72
2021/03/05 10:11:11;;;;;;;28.43;12.23;;;;;;;4.91;100.00;99605.64;1764781;80;20937;-75
2021/03/05 10:13:54;;;;;;;31.93;12.30;;;;;;;4.93;100.00;99599.64;1746716;80;20957;-76
2021/03/05 10:16:32;;;;;;;32.30;15.55;;;;;;;4.91;100.00;99608.32;1708824;83;21684;-74
2021/03/05 10:19:14;;;;;;;29.27;13.67;;;;;;;4.89;100.00;99604.11;1694989;84;21085;-73
2021/03/05 10:21:53;;;;;;;25.73;11.33;;;;;;;4.88;100.00;99597.05;1795256;77;26399;-76
2021/03/05 10:24:27;;;;;;;18.13;7.90;;;;;;;4.82;100.00;99590.95;1769674;80;20923;-76
2021/03/05 10:27:21;;;;;;;10.53;5.70;;;;;;;4.82;100.00;99591.79;1758888;80;21360;-76
2021/03/05 10:29:57;;;;;;;25.50;10.13;;;;;;;4.87;100.00;99589.52;1683400;82;21063;-76
2021/03/05 10:32:28;;;;;;;29.87;12.73;;;;;;;4.97;100.00;99592.16;1675792;84;21059;-74
2021/03/05 10:35:04;;;;;;;31.90;13.33;;;;;;;5.06;100.00;99587.25;1674340;84;21023;-77
2021/03/05 10:37:39;;;;;;;25.57;10.37;;;;;;;5.16;100.00;99589.07;1825919;76;26964;-73
2021/03/05 10:40:15;;;;;;;29.00;13.17;;;;;;;5.12;100.00;99600.59;1806426;78;21028;-78
2021/03/05 10:42:43;;;;;;;25.30;11.03;;;;;;;5.07;100.00;99596.16;1793680;79;21198;-73
2021/03/05 10:45:12;;;;;;;32.57;11.13;;;;;;;5.00;100.00;99598.57;1798258;77;21467;-73
2021/03/05 10:47:40;;;;;;;24.90;9.30;;;;;;;4.94;100.00;99597.33;1795890;79;21036;-74
2021/03/05 10:50:09;;;;;;;29.73;11.87;;;;;;;4.97;100.00;99604.72;1778025;78;20965;-77
2021/03/05 10:52:37;;;;;;;24.60;11.20;;;;;;;5.00;100.00;99598.57;1794212;79;21008;-74
2021/03/05 10:55:09;;;;;;;16.10;6.53;;;;;;;5.00;100.00;99603.92;1795715;77;21863;-75
2021/03/05 10:57:39;;;;;;;24.80;9.50;;;;;;;4.92;100.00;99605.14;1792804;79;20972;-73
2021/03/05 11:00:08;;;;;;;25.33;10.20;;;;;;;4.86;100.00;99604.39;1800347;79;21024;-71
2021/03/05 11:02:38;;;;;;;22.27;9.17;;;;;;;4.79;100.00;99605.97;1802440;77;20972;-74
2021/03/05 11:05:16;;;;;;;24.97;10.63;;;;;;;4.77;100.00;99602.59;1802272;79;21028;-71
2021/03/05 11:07:49;;;;;;;36.73;15.03;;;;;;;4.74;100.00;99599.69;1706457;82;21217;-72
2021/03/05 11:10:17;;;;;;;40.37;15.10;;;;;;;4.72;100.00;99607.03;1708222;83;21203;-75
2021/03/05 11:12:47;;;;;;;35.03;14.13;;;;;;;4.65;100.00;99609.43;1702273;82;21075;-73
2021/03/05 11:15:17;;;;;;;40.97;17.77;;;;;;;4.57;100.00;99598.61;1719250;81;21197;-72
2021/03/05 11:17:45;;;;;;;26.17;11.63;;;;;;;4.54;100.00;99594.88;1719848;81;21122;-73
2021/03/05 11:20:15;;;;;;;23.97;7.17;;;;;;;4.54;100.00;99597.55;1712086;83;22332;-75
2021/03/05 11:22:43;;;;;;;23.50;10.17;;;;;;;4.55;100.00;99593.39;1662990;86;21204;-76
2021/03/05 11:25:16;;;;;;;29.30;12.47;;;;;;;4.58;100.00;99596.27;1706864;83;21020;-74
2021/03/05 11:27:48;;;;;;;28.57;12.67;;;;;;;4.59;100.00;99598.47;1693426;83;21112;-75
2021/03/05 11:30:18;;;;;;;19.90;9.50;;;;;;;4.60;100.00;99600.14;1709373;81;20985;-74
2021/03/05 11:32:48;;;;;;;26.50;10.50;;;;;;;4.56;100.00;99604.44;1723694;81;22689;-76
2021/03/05 11:35:17;;;;;;;24.90;12.40;;;;;;;4.50;100.00;99614.40;1707003;81;21047;-72
2021/03/05 11:37:45;;;;;;;25.33;11.43;;;;;;;4.46;100.00;99608.98;1710869;81;21575;-72
2021/03/05 11:40:15;;;;;;;27.10;12.80;;;;;;;4.47;100.00;99611.99;1710758;81;21233;-75